Flight Track Log - Related Links

Times and Time Zones

All times are in EDT time to prevent confusion due to time zone crossing. See the TSC532 flight status page for this flight to view local times or setup timezone preferences in your user account.

Time Position Orientation Groundspeed Altitude Reporting Facility
EDT Latitude Longitude Course Direction KTS MPH feet Rate Location/Type
Thu 05:26:49 AM 44.9000 -63.4833 240° Southwest 170 196 2,600  Level Moncton Center
Thu 05:27:49 AM 44.9167 -63.5000 325° Northwest 190 219 4,700 2,550 Climbing Moncton Center
Thu 05:28:49 AM 44.8833 -63.6000 245° Southwest 260 299 7,700 3,000 Climbing Moncton Center
Thu 05:29:49 AM 44.8500 -63.6833 241° Southwest 270 311 10,700 2,550 Climbing Moncton Center
Thu 05:30:49 AM 44.8000 -63.8000 239° Southwest 330 380 12,800 2,600 Climbing Moncton Center
Thu 05:31:49 AM 44.7500 -63.9333 242° Southwest 360 414 15,900 2,800 Climbing Moncton Center
Thu 05:32:00 AM 44.4896 -64.3652 240° Southwest  Level FlightAware Approximate
Thu 05:32:49 AM 44.7000 -64.0500 239° Southwest 370 426 18,400  Level Moncton Center
Thu 05:33:49 AM 44.6333 -64.1833 235° Southwest 380 437 21,300 2,550 Climbing Moncton Center
Thu 05:34:49 AM 44.5833 -64.3000 239° Southwest 390 449 23,500 2,100 Climbing Moncton Center
Thu 05:35:49 AM 44.5333 -64.4500 245° Southwest 400 460 25,500 1,850 Climbing Moncton Center
Thu 05:36:49 AM 44.4667 -64.5833 235° Southwest 410 472 27,200 1,750 Climbing Moncton Center
Thu 05:37:49 AM 44.4000 -64.7167 235° Southwest 430 495 29,000 2,050 Climbing Moncton Center
Thu 05:38:49 AM 44.3500 -64.8667 245° Southwest 420 483 31,300 1,850 Climbing Moncton Center
Thu 05:39:49 AM 44.2833 -65.0000 235° Southwest 420 483 32,700 1,300 Climbing Moncton Center
Thu 05:40:49 AM 44.2333 -65.1500 245° Southwest 420 483 33,900 650 Climbing Moncton Center
Thu 05:41:49 AM 44.1667 -65.2833 235° Southwest 430 495 34,000 50 Climbing Moncton Center
Thu 05:42:49 AM 44.1000 -65.4167 235° Southwest 430 495 34,000  Level Moncton Center
Thu 05:43:49 AM 44.0333 -65.5667 238° Southwest 430 495 34,000  Level Moncton Center
Thu 05:44:49 AM 43.9833 -65.7000 243° Southwest 430 495 34,000  Level Moncton Center
Thu 05:45:49 AM 43.9167 -65.8333 235° Southwest 430 495 34,000  Level Moncton Center
Thu 05:46:49 AM 43.8333 -66.0000 235° Southwest 430 495 34,000  Level Moncton Center
Thu 05:47:49 AM 43.7833 -66.1333 243° Southwest 430 495 34,000  Level Moncton Center
Thu 05:48:49 AM 43.7000 -66.2667 229° Southwest 440 506 34,000  Level Moncton Center
Thu 05:49:49 AM 43.6167 -66.3833 225° Southwest 440 506 34,000  Level Moncton Center
Thu 05:50:49 AM 43.5500 -66.5167 235° Southwest 440 506 34,000  Level Moncton Center
Thu 05:51:49 AM 43.4667 -66.6500 229° Southwest 450 518 34,000  Level Moncton Center
Thu 05:52:49 AM 43.3833 -66.7833 229° Southwest 450 518 34,000  Level Moncton Center
Thu 05:53:49 AM 43.3000 -66.9167 229° Southwest 440 506 34,000  Level Moncton Center
Thu 05:54:49 AM 43.2167 -67.0333 226° Southwest 440 506 34,000  Level Moncton Center
Thu 05:55:49 AM 43.1500 -67.1667 236° Southwest 450 518 34,000  Level Moncton Center
Thu 05:56:49 AM 43.0833 -67.3000 236° Southwest 440 506 34,000  Level Moncton Center
Thu 05:58:00 AM 43.0117 -67.4842 242° Southwest 440 506 34,000  Level Boston Center
Thu 05:59:02 AM 42.9508 -67.6197 239° Southwest 435 501 34,000 -55 Level Boston Center
Thu 05:59:49 AM 42.8833 -67.7167 226° Southwest 440 506 33,900 -56 Descending Moncton Center
Thu 06:00:49 AM 42.8333 -67.8500 243° Southwest 430 495 33,900 50 Level Moncton Center
Thu 06:01:49 AM 42.7500 -67.9833 230° Southwest 440 506 34,000 50 Climbing Moncton Center
Thu 06:02:49 AM 42.6833 -68.1500 241° Southwest 440 506 34,000  Level Moncton Center
Thu 06:03:49 AM 42.6333 -68.2833 243° Southwest 440 506 34,000  Level Moncton Center
Thu 06:04:49 AM 42.5667 -68.4167 236° Southwest 440 506 34,000 -50 Level Moncton Center
Thu 06:05:49 AM 42.5000 -68.5333 232° Southwest 430 495 33,900  Descending Moncton Center
Thu 06:06:49 AM 42.4333 -68.7000 242° Southwest 440 506 34,000 50 Climbing Moncton Center
Thu 06:07:49 AM 42.3667 -68.8333 236° Southwest 440 506 34,000  Level Moncton Center
Thu 06:08:12 AM 42.3569 -68.8744 252° West 440 506 34,000  Level Boston Center
Thu 06:09:13 AM 42.2922 -69.0100 237° Southwest 440 506 34,000  Level Boston Center
Thu 06:10:13 AM 42.2239 -69.1653 239° Southwest 446 513 34,000  Level Boston Center
Thu 06:11:13 AM 42.1547 -69.2978 235° Southwest 446 513 34,000  Level Boston Center
Thu 06:12:14 AM 42.0875 -69.4353 237° Southwest 446 513 34,000  Level Boston Center
Thu 06:13:12 AM 42.0219 -69.5642 236° Southwest 439 505 34,000  Level Boston Center
Thu 06:14:12 AM 41.9442 -69.6989 232° Southwest 439 505 34,000  Level Boston Center
Thu 06:15:12 AM 41.8928 -69.8239 241° Southwest 439 505 34,000  Level Boston Center
Thu 06:16:12 AM 41.8250 -69.9606 236° Southwest 439 505 34,000  Level Boston Center
Thu 06:17:12 AM 41.7508 -70.0997 234° Southwest 438 504 34,000  Level Boston Center
Thu 06:18:14 AM 41.6869 -70.2356 238° Southwest 433 498 34,000  Level Boston Center
Thu 06:19:14 AM 41.6164 -70.3658 234° Southwest 433 498 34,000  Level Boston Center
Thu 06:20:12 AM 41.5522 -70.5011 238° Southwest 438 504 34,000  Level Boston Center
Thu 06:21:12 AM 41.4878 -70.6417 239° Southwest 443 510 34,000  Level Boston Center
Thu 06:22:14 AM 41.4211 -70.7736 236° Southwest 443 510 34,000  Level Boston Center
Thu 06:23:14 AM 41.3522 -70.9081 236° Southwest 443 510 34,000  Level Boston Center
Thu 06:24:27 AM 41.2872 -71.0394 237° Southwest 443 510 34,000  Level Boston Center
Thu 06:25:26 AM 41.2036 -71.1986 235° Southwest 443 510 34,000  Level Boston Center
Thu 06:26:26 AM 41.1361 -71.3294 236° Southwest 443 510 34,000 -50 Level Boston Center
Thu 06:27:27 AM 41.0686 -71.4600 236° Southwest 443 510 33,900  Descending Boston Center
Thu 06:28:25 AM 41.0133 -71.5681 236° Southwest 443 510 34,000  Climbing Boston Center
Thu 06:29:25 AM 40.9311 -71.7258 235° Southwest 443 510 33,900  Descending Boston Center
Thu 06:30:27 AM 40.8608 -71.8528 234° Southwest 443 510 34,000 50 Climbing Boston Center
Thu 06:31:26 AM 40.7947 -71.9631 232° Southwest 437 503 34,000  Level Boston Center
Thu 06:32:39 AM 40.6994 -72.1336 234° Southwest 437 503 34,000 -45 Level Boston Center
Thu 06:33:38 AM 40.6311 -72.2678 236° Southwest 442 509 33,900  Descending Boston Center
Thu 06:34:37 AM 40.5581 -72.3936 233° Southwest 442 509 34,000 50 Climbing Boston Center
Thu 06:35:37 AM 40.4894 -72.5275 236° Southwest 442 509 34,000  Level Boston Center
Thu 06:36:37 AM 40.4183 -72.6608 235° Southwest 448 516 34,000  Level Boston Center
Thu 06:37:38 AM 40.3492 -72.7939 236° Southwest 448 516 34,000  Level Boston Center
Thu 06:38:37 AM 40.2739 -72.9242 233° Southwest 448 516 34,000  Level Boston Center
Thu 06:39:37 AM 40.2064 -73.0542 236° Southwest 448 516 34,000  Level Boston Center
Thu 06:41:59 AM 40.0256 -73.3428 231° Southwest 443 510 34,000  Level Washington Center
Thu 06:42:59 AM 39.9297 -73.4433 219° Southwest 448 516 34,000  Level Washington Center
Thu 06:43:59 AM 39.8378 -73.5514 222° Southwest 448 516 34,000  Level Washington Center
Thu 06:44:59 AM 39.7417 -73.6567 220° Southwest 448 516 34,000  Level Washington Center
Thu 06:45:59 AM 39.6433 -73.7617 219° Southwest 453 521 34,000  Level Washington Center
Thu 06:46:59 AM 39.5511 -73.8664 221° Southwest 453 521 34,000  Level Washington Center
Thu 06:47:59 AM 39.4544 -73.9736 221° Southwest 453 521 34,000  Level Washington Center
Thu 06:48:59 AM 39.3600 -74.0778 220° Southwest 453 521 34,000  Level Washington Center
Thu 06:49:59 AM 39.2633 -74.1842 220° Southwest 453 521 34,000 50 Level Washington Center
Thu 06:50:59 AM 39.1581 -74.2772 214° Southwest 458 527 34,100 350 Climbing Washington Center
Thu 06:51:59 AM 39.0381 -74.3356 201° Southwest 453 521 34,700 650 Climbing Washington Center
Thu 06:52:59 AM 38.9156 -74.3964 201° Southwest 466 536 35,400 600 Climbing Washington Center
Thu 06:53:59 AM 38.7911 -74.4544 200° South 478 550 35,900 300 Climbing Washington Center
Thu 06:54:59 AM 38.6664 -74.5147 201° Southwest 478 550 36,000 50 Climbing Washington Center
Thu 06:55:59 AM 38.5439 -74.5725 200° South 478 550 36,000  Level Washington Center
Thu 06:56:59 AM 38.4194 -74.6350 201° Southwest 478 550 36,000  Level Washington Center
Thu 06:58:00 AM 38.2989 -74.6922 200° South 473 544 36,000  Level Washington Center
Thu 06:58:59 AM 38.1783 -74.7492 200° South 465 535 36,000  Level Washington Center
Thu 06:59:59 AM 38.0497 -74.8167 202° Southwest 470 541 36,000  Level Washington Center
Thu 07:00:59 AM 37.9269 -74.8706 199° South 470 541 36,000  Level Washington Center
Thu 07:01:59 AM 37.8083 -74.9294 201° Southwest 470 541 36,000  Level Washington Center
Thu 07:02:59 AM 37.6856 -74.9831 199° South 465 535 36,000  Level Washington Center
Thu 07:03:59 AM 37.5669 -75.0392 201° Southwest 465 535 36,000  Level Washington Center
Thu 07:04:59 AM 37.4464 -75.0947 200° South 465 535 36,000  Level Washington Center
Thu 07:05:59 AM 37.3275 -75.1506 200° South 465 535 36,000  Level Washington Center
Thu 07:06:59 AM 37.2111 -75.2086 202° Southwest 465 535 36,000  Level Washington Center
Thu 07:07:59 AM 37.0903 -75.2611 199° South 465 535 36,000  Level Washington Center
Thu 07:08:59 AM 36.9839 -75.3111 201° Southwest 465 535 36,000  Level Washington Center
Thu 07:09:59 AM 36.8650 -75.3661 200° South 465 535 36,000  Level Washington Center
Thu 07:10:59 AM 36.7442 -75.4183 199° South 465 535 36,000 -50 Level Washington Center
Thu 07:11:59 AM 36.6253 -75.4728 200° South 465 535 35,900  Descending Washington Center
Thu 07:12:59 AM 36.5064 -75.5272 200° South 465 535 36,000 50 Climbing Washington Center
Thu 07:13:59 AM 36.3897 -75.5792 200° South 460 529 36,000  Level Washington Center
Thu 07:14:59 AM 36.2561 -75.6436 201° Southwest 460 529 36,000  Level Washington Center
Thu 07:15:59 AM 36.1475 -75.6897 199° South 465 535 36,000  Level Washington Center
Thu 07:16:59 AM 36.0308 -75.7436 200° South 465 535 36,000  Level Washington Center
Thu 07:17:59 AM 35.9097 -75.7972 200° South 465 535 36,000 -50 Level Washington Center
Thu 07:18:59 AM 35.7886 -75.8506 200° South 465 535 35,900  Descending Washington Center
Thu 07:19:59 AM 35.6694 -75.9014 199° South 465 535 36,000 50 Climbing Washington Center
Thu 07:20:59 AM 35.5483 -75.9547 200° South 465 535 36,000  Level Washington Center
Thu 07:21:59 AM 35.4272 -76.0100 200° South 465 535 36,000  Level Washington Center
Thu 07:22:59 AM 35.3100 -76.0631 200° South 465 535 36,000 -50 Level Washington Center
Thu 07:23:59 AM 35.1908 -76.1131 199° South 465 535 35,900  Descending Washington Center
Thu 07:24:59 AM 35.0592 -76.1731 200° South 465 535 36,000 50 Climbing Washington Center
Thu 07:25:59 AM 34.9442 -76.2281 201° Southwest 455 524 36,000  Level Washington Center
Thu 07:26:59 AM 34.8250 -76.2778 199° South 455 524 36,000  Level Washington Center
Thu 07:27:59 AM 34.7058 -76.3272 199° South 455 524 36,000 -50 Level Washington Center
Thu 07:28:59 AM 34.5864 -76.3792 200° South 455 524 35,900  Descending Washington Center
Thu 07:29:59 AM 34.4692 -76.4311 200° South 455 524 36,000 50 Climbing Washington Center
Thu 07:30:59 AM 34.3522 -76.4828 200° South 450 518 36,000  Level Washington Center
Thu 07:31:59 AM 34.2306 -76.5342 199° South 455 524 36,000  Level Washington Center
Thu 07:32:59 AM 34.1092 -76.5853 199° South 455 524 36,000  Level Washington Center
Thu 07:35:07 AM 33.8675 -76.6903 200° South 456 525 36,000  Level Jacksonville Center
Thu 07:36:07 AM 33.7469 -76.7411 199° South 456 525 36,000  Level Jacksonville Center
Thu 07:37:07 AM 33.6306 -76.7917 200° South 456 525 36,000  Level Jacksonville Center
Thu 07:38:07 AM 33.5097 -76.8400 198° South 456 525 36,000  Level Jacksonville Center
Thu 07:39:07 AM 33.3908 -76.8878 199° South 456 525 36,000 -50 Level Jacksonville Center
Thu 07:40:07 AM 33.2744 -76.9378 200° South 449 517 35,900  Descending Jacksonville Center
Thu 07:41:07 AM 33.1517 -76.9883 199° South 449 517 36,000 50 Climbing Jacksonville Center
Thu 07:42:07 AM 33.0369 -77.0381 200° South 455 524 36,000  Level Jacksonville Center
Thu 07:43:07 AM 32.9119 -77.0881 199° South 455 524 36,000  Level Jacksonville Center
Thu 07:44:07 AM 32.7933 -77.1403 200° South 455 524 36,000  Level Jacksonville Center
Thu 07:45:07 AM 32.6764 -77.1847 198° South 455 524 36,000  Level Jacksonville Center
Thu 07:46:07 AM 32.5558 -77.2367 200° South 455 524 36,000  Level Jacksonville Center
Thu 07:47:07 AM 32.4386 -77.2808 198° South 455 524 36,000  Level Jacksonville Center
Thu 07:48:07 AM 32.3181 -77.3350 201° Southwest 455 524 36,000  Level Jacksonville Center
Thu 07:49:07 AM 32.2011 -77.3814 199° South 455 524 36,000  Level Jacksonville Center
Thu 07:50:07 AM 32.0842 -77.4300 199° South 455 524 36,000  Level Jacksonville Center
Thu 07:51:07 AM 31.9653 -77.4786 199° South 455 524 36,000  Level Jacksonville Center
Thu 07:52:07 AM 31.8442 -77.5250 198° South 455 524 36,000 -50 Level Jacksonville Center
Thu 07:53:07 AM 31.7272 -77.5756 200° South 455 524 35,900  Descending Jacksonville Center
Thu 07:54:07 AM 31.6061 -77.6264 200° South 455 524 36,000 50 Climbing Jacksonville Center
Thu 07:55:07 AM 31.4911 -77.6672 197° South 455 524 36,000  Level Jacksonville Center
Thu 07:56:07 AM 31.3697 -77.7103 197° South 450 518 36,000  Level Jacksonville Center
Thu 07:57:07 AM 31.2528 -77.7656 202° Southwest 455 524 36,000  Level Jacksonville Center
Thu 07:58:07 AM 31.1336 -77.8108 198° South 455 524 36,000  Level Jacksonville Center
Thu 07:59:07 AM 31.0164 -77.8533 197° South 455 524 36,000  Level Jacksonville Center
Thu 08:00:07 AM 30.8992 -77.8961 197° South 455 524 36,000  Level Jacksonville Center
Thu 08:01:07 AM 30.7819 -77.9458 200° South 455 524 36,000  Level Jacksonville Center
Thu 08:02:07 AM 30.6444 -78.0058 201° Southwest 455 524 36,000 -50 Level Jacksonville Center
Thu 08:03:07 AM 30.5475 -78.0328 193° South 445 512 35,900  Descending Jacksonville Center
Thu 08:05:15 AM 30.2956 -78.1267 198° South 433 498 36,000 32 Climbing Miami Center
Thu 08:06:15 AM 30.1744 -78.1467 188° South 438 504 36,000  Level Miami Center
Thu 08:07:15 AM 30.0450 -78.1597 185° South 445 512 36,000  Level Miami Center
Thu 08:08:15 AM 29.9281 -78.1844 190° South 448 516 36,000  Level Miami Center
Thu 08:09:15 AM 29.8069 -78.1997 186° South 441 507 36,000  Level Miami Center
Thu 08:10:15 AM 29.6839 -78.2197 188° South 450 518 36,000  Level Miami Center
Thu 08:11:15 AM 29.5628 -78.2397 188° South 450 518 36,000  Level Miami Center
Thu 08:12:15 AM 29.4394 -78.2547 186° South 450 518 36,000  Level Miami Center
Thu 08:13:15 AM 29.3244 -78.2772 190° South 444 511 36,000  Level Miami Center
Thu 08:14:15 AM 29.2033 -78.2969 188° South 444 511 36,000  Level Miami Center
Thu 08:15:15 AM 29.0800 -78.3144 187° South 444 511 36,000  Level Miami Center
Thu 08:16:15 AM 28.9547 -78.3317 187° South 444 511 36,000  Level Miami Center
Thu 08:17:15 AM 28.8314 -78.3539 189° South 452 520 36,000  Level Miami Center
Thu 08:18:15 AM 28.7058 -78.3711 187° South 452 520 36,000  Level Miami Center
Thu 08:19:15 AM 28.5867 -78.3908 188° South 446 513 36,000  Level Miami Center
Thu 08:20:15 AM 28.4614 -78.4078 187° South 452 520 36,000  Level Miami Center
Thu 08:21:15 AM 28.3381 -78.4275 188° South 452 520 36,000 -50 Level Miami Center
Thu 08:22:15 AM 28.2061 -78.4492 188° South 441 507 35,900 -50 Descending Miami Center
Thu 08:23:15 AM 28.0869 -78.4686 188° South 447 514 35,900 50 Level Miami Center
Thu 08:24:15 AM 27.9614 -78.4881 188° South 447 514 36,000 50 Climbing Miami Center
Thu 08:25:15 AM 27.8403 -78.5053 187° South 447 514 36,000  Level Miami Center
Thu 08:26:15 AM 27.7147 -78.5267 189° South 447 514 36,000  Level Miami Center
Thu 08:27:15 AM 27.5892 -78.5436 187° South 447 514 36,000  Level Miami Center
Thu 08:28:15 AM 27.4678 -78.5631 188° South 447 514 36,000  Level Miami Center
Thu 08:29:15 AM 27.3403 -78.5822 188° South 447 514 36,000  Level Miami Center
Thu 08:30:15 AM 27.2189 -78.5992 187° South 457 526 36,000  Level Miami Center
Thu 08:31:15 AM 27.0953 -78.6183 188° South 446 513 36,000 -50 Level Miami Center
Thu 08:32:15 AM 26.9719 -78.6350 187° South 446 513 35,900 -50 Descending Miami Center
Thu 08:33:15 AM 26.8464 -78.6564 189° South 452 520 35,900 50 Level Miami Center
Thu 08:34:15 AM 26.7231 -78.6731 187° South 447 514 36,000 50 Climbing Miami Center
Thu 08:35:15 AM 26.6142 -78.6900 188° South 447 514 36,000  Level Miami Center
Thu 08:36:15 AM 26.4906 -78.7089 188° South 447 514 36,000  Level Miami Center
Thu 08:37:15 AM 26.3650 -78.7256 187° South 447 514 36,000  Level Miami Center
Thu 08:38:15 AM 26.2417 -78.7444 188° South 452 520 36,000  Level Miami Center
Thu 08:39:15 AM 26.1117 -78.7633 187° South 458 527 36,000  Level Miami Center
Thu 08:40:15 AM 25.9736 -78.7864 189° South 458 527 36,000  Level Miami Center
Thu 08:41:15 AM 25.8542 -78.8008 186° South 458 527 36,000  Level Miami Center
Thu 08:42:15 AM 25.7286 -78.8219 189° South 458 527 36,000  Level Miami Center
Thu 08:43:15 AM 25.6008 -78.8406 187° South 458 527 36,000  Level Miami Center
Thu 08:44:15 AM 25.4794 -78.8569 187° South 453 521 36,000  Level Miami Center
Thu 08:45:15 AM 25.3497 -78.8778 188° South 464 534 36,000  Level Miami Center
Thu 08:46:15 AM 25.2242 -78.8964 188° South 464 534 36,000  Level Miami Center
Thu 08:47:15 AM 25.0964 -78.9150 188° South 464 534 36,000  Level Miami Center
Thu 08:48:15 AM 24.9875 -78.9314 188° South 461 531 36,000  Level Miami Center
Thu 08:49:15 AM 24.8450 -78.9497 187° South 466 536 36,000 -250 Level Miami Center
Thu 08:50:15 AM 24.7153 -78.9681 187° South 466 536 35,500 -700 Descending Miami Center
Thu 08:51:15 AM 24.6042 -78.9844 188° South 471 542 34,600 -950 Descending Miami Center
Thu 08:52:15 AM 24.4786 -79.0028 188° South 465 535 33,600 -1,000 Descending Miami Center
Thu 08:53:15 AM 24.3550 -79.0211 188° South 452 520 32,600 -800 Descending Miami Center
Thu 08:54:15 AM 24.2294 -79.0419 189° South 458 527 32,000 -550 Descending Miami Center
Thu 08:55:15 AM 24.0975 -79.0556 185° South 468 539 31,500 -500 Descending Miami Center
Thu 08:57:00 AM 23.9042 -79.1190 208° Southwest  Level FlightAware Approximate
Thu 09:04:00 AM 23.1719 -79.5490 207° Southwest  Level FlightAware Approximate
Thu 09:05:00 AM 23.0661 -79.6077 207° Southwest  Level FlightAware Approximate
Thu 09:06:00 AM 22.9585 -79.6625 205° Southwest  Level FlightAware Approximate
Thu 09:07:00 AM 22.8506 -79.7164 205° Southwest  Level FlightAware Approximate
Thu 09:08:00 AM 22.7448 -79.7751 207° Southwest  Level FlightAware Approximate
Thu 09:09:00 AM 22.6457 -79.8438 205° Southwest  Level FlightAware Approximate
Thu 09:10:00 AM 22.5389 -79.9000 209° Southwest  Level FlightAware Approximate
Thu 09:11:00 AM 22.4833 -79.9333 209° Southwest  Level FlightAware Approximate
Thu 09:12:00 AM 22.4922 -79.9436 209° Southwest  Level Estimated
Thu 09:13:00 AM 22.4922 -79.9436 209° Southwest  Level Estimated
Thu 09:14:00 AM 22.4922 -79.9436 209° Southwest  Level Estimated
Thu 09:15:00 AM 22.4922 -79.9436 209° Southwest  Level Estimated
Thu 09:16:00 AM 22.4922 -79.9436 209° Southwest  Level Estimated
Thu 09:17:00 AM 22.4922 -79.9436 209° Southwest  Level Estimated
Thu 09:18:00 AM 22.4922 -79.9436 209° Southwest  Level Estimated
Thu 09:19:00 AM 22.4922 -79.9436 209° Southwest  Level Estimated
Thu 09:20:00 AM 22.4922 -79.9436 209° Southwest  Level Estimated
Thu 09:21:00 AM 22.4922 -79.9436 209° Southwest  Level Estimated
Thu 09:22:00 AM 22.4922 -79.9436 209° Southwest  Level Estimated
Thu 09:23:00 AM 22.4922 -79.9436 209° Southwest  Level Estimated
Thu 09:24:00 AM 22.4922 -79.9436 209° Southwest  Level Estimated
Thu 09:25:00 AM 22.4922 -79.9436 209° Southwest  Level Estimated

Login

Don't have an account? Register now (free) for customized features, flight alerts, and more!